createdAt,value
2023-02-22T00:01:35.371Z,6.42
2023-02-22T00:04:04.615Z,6.35
2023-02-22T00:06:31.379Z,6.32
2023-02-22T00:08:58.895Z,6.35
2023-02-22T00:11:25.961Z,6.32
2023-02-22T00:13:57.017Z,6.31
2023-02-22T00:16:24.963Z,6.31
2023-02-22T00:18:52.357Z,6.32
2023-02-22T00:21:19.621Z,6.30
2023-02-22T00:23:47.925Z,6.30
2023-02-22T00:26:20.276Z,6.30
2023-02-22T00:28:49.391Z,6.25
2023-02-22T00:31:16.671Z,6.24
2023-02-22T00:33:43.701Z,6.24
2023-02-22T00:36:12.510Z,6.24
2023-02-22T00:38:40.178Z,6.27
2023-02-22T00:41:07.291Z,6.27
2023-02-22T00:43:34.308Z,6.25
2023-02-22T00:46:01.094Z,6.24
2023-02-22T00:48:28.469Z,6.25
2023-02-22T00:50:58.049Z,6.24
2023-02-22T00:53:26.143Z,6.23
2023-02-22T00:55:53.871Z,6.23
2023-02-22T00:58:21.703Z,6.18
2023-02-22T01:00:49.530Z,6.18
2023-02-22T01:03:20.620Z,6.20
2023-02-22T01:05:47.799Z,6.17
2023-02-22T01:08:16.680Z,6.14
2023-02-22T01:10:43.954Z,6.11
2023-02-22T01:13:12.828Z,6.04
2023-02-22T01:15:43.178Z,6.09
2023-02-22T01:18:12.553Z,6.11
2023-02-22T01:20:39.507Z,6.13
2023-02-22T01:23:07.801Z,6.17
2023-02-22T01:25:35.682Z,6.18
2023-02-22T01:28:05.117Z,6.21
2023-02-22T01:30:34.902Z,6.21
2023-02-22T01:33:03.694Z,6.21
2023-02-22T01:35:34.140Z,6.28
2023-02-22T01:38:00.915Z,6.27
2023-02-22T01:40:29.670Z,6.24
2023-02-22T01:42:59.807Z,6.24
2023-02-22T01:45:35.244Z,6.23
2023-02-22T01:48:08.669Z,6.20
2023-02-22T01:50:42.506Z,6.20
2023-02-22T01:53:13.388Z,6.16
2023-02-22T01:55:40.517Z,6.16
2023-02-22T01:58:08.839Z,6.17
2023-02-22T02:00:36.231Z,6.14
2023-02-22T02:03:09.657Z,6.13
2023-02-22T02:05:37.357Z,6.10
2023-02-22T02:08:39.338Z,6.11
2023-02-22T02:11:09.158Z,6.13
2023-02-22T02:13:36.860Z,6.09
2023-02-22T02:16:04.114Z,6.11
2023-02-22T02:18:32.566Z,6.10
2023-02-22T02:21:38.422Z,6.10
2023-02-22T02:24:09.136Z,6.11
2023-02-22T02:26:51.085Z,6.09
2023-02-22T02:30:03.349Z,6.11
2023-02-22T02:32:39.467Z,6.07
2023-02-22T02:35:24.868Z,6.04
2023-02-22T02:37:54.334Z,6.04
2023-02-22T02:40:32.375Z,5.94
2023-02-22T02:43:01.769Z,5.96
2023-02-22T02:45:53.914Z,5.92
2023-02-22T02:48:26.791Z,5.89
2023-02-22T02:50:56.541Z,5.89
2023-02-22T02:53:29.851Z,5.87
2023-02-22T02:55:59.384Z,5.86
2023-02-22T02:58:26.604Z,5.85
2023-02-22T03:00:56.947Z,5.86
2023-02-22T03:03:37.948Z,5.80
2023-02-22T03:06:04.540Z,5.76
2023-02-22T03:08:38.389Z,5.70
2023-02-22T03:11:16.894Z,5.65
2023-02-22T03:13:46.604Z,5.56
2023-02-22T03:16:35.120Z,5.48
2023-02-22T03:19:15.617Z,5.43
2023-02-22T03:21:50.408Z,5.41
2023-02-22T03:24:20.888Z,5.38
2023-02-22T03:26:53.955Z,5.36
2023-02-22T03:29:23.843Z,5.38
2023-02-22T03:32:01.866Z,5.39
2023-02-22T03:34:42.512Z,5.41
2023-02-22T03:37:18.164Z,5.43
2023-02-22T03:39:46.754Z,5.46
2023-02-22T03:42:20.999Z,5.43
2023-02-22T03:44:49.889Z,5.46
2023-02-22T03:47:21.715Z,5.45
2023-02-22T03:49:57.474Z,5.42
2023-02-22T03:52:24.529Z,5.39
2023-02-22T03:54:53.739Z,5.36
2023-02-22T03:57:42.117Z,5.34
2023-02-22T04:00:10.945Z,5.28
2023-02-22T04:02:37.680Z,5.25
2023-02-22T04:05:04.525Z,5.25
2023-02-22T04:07:31.158Z,5.27
2023-02-22T04:09:57.760Z,5.28
2023-02-22T04:12:24.313Z,5.25
2023-02-22T04:14:51.017Z,5.27
2023-02-22T04:17:17.618Z,5.25
2023-02-22T04:19:45.694Z,5.25
2023-02-22T04:22:12.355Z,5.28
2023-02-22T04:24:38.932Z,5.22
2023-02-22T04:27:05.567Z,5.22
2023-02-22T04:29:32.137Z,5.22
2023-02-22T04:31:58.702Z,5.24
2023-02-22T04:34:25.374Z,5.22
2023-02-22T04:36:52.380Z,5.24
2023-02-22T04:39:19.173Z,5.22
2023-02-22T04:41:47.505Z,5.21
2023-02-22T04:44:14.448Z,5.15
2023-02-22T04:46:41.162Z,5.12
2023-02-22T04:49:07.850Z,5.11
2023-02-22T04:51:35.909Z,5.05
2023-02-22T04:54:02.664Z,5.00
2023-02-22T04:56:29.253Z,4.95
2023-02-22T04:58:55.846Z,4.94
2023-02-22T05:01:23.461Z,4.88
2023-02-22T05:03:50.665Z,4.80
2023-02-22T05:06:18.390Z,4.71
2023-02-22T05:08:45.035Z,4.63
2023-02-22T05:11:11.732Z,4.59
2023-02-22T05:13:38.447Z,4.53
2023-02-22T05:16:05.575Z,4.43
2023-02-22T05:18:32.236Z,4.38
2023-02-22T05:20:58.905Z,4.38
2023-02-22T05:23:25.797Z,4.33
2023-02-22T05:25:52.511Z,4.31
2023-02-22T05:28:19.252Z,4.28
2023-02-22T05:30:46.253Z,4.23
2023-02-22T05:33:13.132Z,4.16
2023-02-22T05:35:40.225Z,4.19
2023-02-22T05:38:07.490Z,4.19
2023-02-22T05:40:34.275Z,4.19
2023-02-22T05:43:02.159Z,4.23
2023-02-22T05:45:29.766Z,4.26
2023-02-22T05:47:56.466Z,4.26
2023-02-22T05:50:23.126Z,4.28
2023-02-22T05:52:50.583Z,4.31
2023-02-22T05:55:19.469Z,4.35
2023-02-22T05:57:46.757Z,4.36
2023-02-22T06:00:23.128Z,4.42
2023-02-22T06:03:02.204Z,4.48
2023-02-22T06:05:29.583Z,4.53
2023-02-22T06:07:57.319Z,4.59
2023-02-22T06:10:24.711Z,4.60
2023-02-22T06:12:52.395Z,4.63
2023-02-22T06:15:21.492Z,4.67
2023-02-22T06:17:48.715Z,4.67
2023-02-22T06:20:20.009Z,4.73
2023-02-22T06:22:51.340Z,4.77
2023-02-22T06:25:21.191Z,4.79
2023-02-22T06:27:47.963Z,4.80
2023-02-22T06:30:16.114Z,4.85
2023-02-22T06:32:42.792Z,4.87
2023-02-22T06:35:10.161Z,4.93
2023-02-22T06:37:36.716Z,4.95
2023-02-22T06:40:05.693Z,5.02
2023-02-22T06:42:32.740Z,5.04
2023-02-22T06:44:59.439Z,5.08
2023-02-22T06:47:26.164Z,5.14
2023-02-22T06:49:56.807Z,5.17
2023-02-22T06:52:23.882Z,5.21
2023-02-22T06:54:51.100Z,5.25
2023-02-22T06:57:18.578Z,5.30
2023-02-22T06:59:45.297Z,5.35
2023-02-22T07:02:13.062Z,5.36
2023-02-22T07:04:43.175Z,5.42
2023-02-22T07:07:10.200Z,5.48
2023-02-22T07:09:36.782Z,5.52
2023-02-22T07:12:03.528Z,5.56
2023-02-22T07:14:30.131Z,5.67
2023-02-22T07:16:56.706Z,5.67
2023-02-22T07:19:24.631Z,5.73
2023-02-22T07:21:55.319Z,5.83
2023-02-22T07:24:22.223Z,5.86
2023-02-22T07:26:48.814Z,5.96
2023-02-22T07:29:15.383Z,6.04
2023-02-22T07:31:42.040Z,6.09
2023-02-22T07:34:08.644Z,6.16
2023-02-22T07:36:35.212Z,6.28
2023-02-22T07:39:01.788Z,6.35
2023-02-22T07:41:28.445Z,6.44
2023-02-22T07:43:55.104Z,6.46
2023-02-22T07:46:21.770Z,6.55
2023-02-22T07:48:48.315Z,6.61
2023-02-22T07:51:17.024Z,6.69
2023-02-22T07:53:43.758Z,6.73
2023-02-22T07:56:10.364Z,6.76
2023-02-22T07:58:37.364Z,6.78
2023-02-22T08:01:04.558Z,6.81
2023-02-22T08:03:37.765Z,6.83
2023-02-22T08:06:06.533Z,6.89
2023-02-22T08:08:34.413Z,6.91
2023-02-22T08:11:01.568Z,6.93
2023-02-22T08:13:28.260Z,6.97
2023-02-22T08:15:55.038Z,7.00
2023-02-22T08:18:22.770Z,7.04
2023-02-22T08:20:51.898Z,7.09
2023-02-22T08:23:20.204Z,7.12
2023-02-22T08:25:46.927Z,7.20
2023-02-22T08:28:16.408Z,7.23
2023-02-22T08:30:43.745Z,7.26
2023-02-22T08:33:14.369Z,7.31
2023-02-22T08:35:41.573Z,7.35
2023-02-22T08:38:15.108Z,7.37
2023-02-22T08:40:41.690Z,7.47
2023-02-22T08:43:08.243Z,7.55
2023-02-22T08:45:34.928Z,7.47
2023-02-22T08:48:02.219Z,7.48
2023-02-22T08:50:33.547Z,7.54
2023-02-22T08:53:02.324Z,7.58
2023-02-22T08:55:32.272Z,7.70
2023-02-22T08:58:01.350Z,7.78
2023-02-22T09:00:30.675Z,7.74
2023-02-22T09:02:57.308Z,7.75
2023-02-22T09:05:23.931Z,7.81
2023-02-22T09:07:50.527Z,7.86
2023-02-22T09:10:20.345Z,8.06
2023-02-22T09:12:46.964Z,8.05
2023-02-22T09:15:14.676Z,8.06
2023-02-22T09:17:41.417Z,8.13
2023-02-22T09:20:08.898Z,8.29
2023-02-22T09:22:35.612Z,8.39
2023-02-22T09:25:11.373Z,8.42
2023-02-22T09:27:44.012Z,8.57
2023-02-22T09:30:23.887Z,8.73
2023-02-22T09:33:26.041Z,8.83
2023-02-22T09:35:52.700Z,8.91
2023-02-22T09:38:29.954Z,8.85
2023-02-22T09:41:13.898Z,9.00
2023-02-22T09:43:50.491Z,9.05
2023-02-22T09:46:27.148Z,9.12
2023-02-22T09:49:02.905Z,9.18
2023-02-22T09:51:58.733Z,9.31
2023-02-22T09:54:52.741Z,9.40
2023-02-22T09:57:26.900Z,9.50
2023-02-22T10:00:13.550Z,9.67
2023-02-22T10:02:49.256Z,9.77
2023-02-22T10:05:31.033Z,9.87
2023-02-22T10:08:05.878Z,9.93
2023-02-22T10:10:39.334Z,9.93
2023-02-22T10:13:25.080Z,9.98
2023-02-22T10:16:28.969Z,9.89
2023-02-22T10:19:27.828Z,9.86
2023-02-22T10:21:54.369Z,9.84
2023-02-22T10:24:29.304Z,10.10
2023-02-22T10:26:59.018Z,10.17
2023-02-22T10:29:44.831Z,10.24
2023-02-22T10:32:25.489Z,10.27
2023-02-22T10:34:54.701Z,10.18
2023-02-22T10:37:33.996Z,10.30
2023-02-22T10:40:20.386Z,10.34
2023-02-22T10:42:47.465Z,10.31
2023-02-22T10:45:35.892Z,10.25
2023-02-22T10:48:09.268Z,10.27
2023-02-22T10:50:40.730Z,10.25
2023-02-22T10:53:09.180Z,10.20
2023-02-22T10:55:37.638Z,10.17
2023-02-22T10:58:08.062Z,10.18
2023-02-22T11:00:39.627Z,10.11
2023-02-22T11:03:22.360Z,10.28
2023-02-22T11:05:49.886Z,10.32
2023-02-22T11:08:24.617Z,10.24
2023-02-22T11:10:57.435Z,10.15
2023-02-22T11:13:38.810Z,10.10
2023-02-22T11:16:21.010Z,10.13
2023-02-22T11:18:48.734Z,10.27
2023-02-22T11:21:22.712Z,10.21
2023-02-22T11:23:50.405Z,10.25
2023-02-22T11:26:20.411Z,10.35
2023-02-22T11:28:56.126Z,10.35
2023-02-22T11:31:27.284Z,10.41
2023-02-22T11:33:59.305Z,10.44
2023-02-22T11:36:43.064Z,10.41
2023-02-22T11:39:24.347Z,10.31
2023-02-22T11:41:51.134Z,10.31
2023-02-22T11:44:31.989Z,10.32
2023-02-22T11:47:06.753Z,10.31
2023-02-22T11:49:39.155Z,10.40
2023-02-22T11:52:35.387Z,10.34
2023-02-22T11:55:32.758Z,10.31
2023-02-22T11:58:23.930Z,10.45
2023-02-22T12:01:07.096Z,10.42
2023-02-22T12:04:03.674Z,10.40
2023-02-22T12:06:48.681Z,10.44
2023-02-22T12:09:23.263Z,10.48
2023-02-22T12:11:57.318Z,10.66
2023-02-22T12:14:58.629Z,10.79
2023-02-22T12:17:43.606Z,10.73
2023-02-22T12:20:23.210Z,10.79
2023-02-22T12:23:23.591Z,10.76
2023-02-22T12:25:58.901Z,10.82
2023-02-22T12:28:37.539Z,10.76
2023-02-22T12:31:18.314Z,10.59
2023-02-22T12:33:51.858Z,10.61
2023-02-22T12:36:24.917Z,10.59
2023-02-22T12:38:59.659Z,10.66
2023-02-22T12:41:52.839Z,10.65
2023-02-22T12:44:29.319Z,10.69
2023-02-22T12:46:58.337Z,10.72
2023-02-22T12:49:52.022Z,10.68
2023-02-22T12:52:25.861Z,10.62
2023-02-22T12:55:04.124Z,10.61
2023-02-22T12:57:30.752Z,10.66
2023-02-22T13:00:23.125Z,10.62
2023-02-22T13:03:04.082Z,10.68
2023-02-22T13:05:36.128Z,10.71
2023-02-22T13:08:11.669Z,10.63
2023-02-22T13:11:11.353Z,10.63
2023-02-22T13:13:40.536Z,10.69
2023-02-22T13:16:31.915Z,10.75
2023-02-22T13:19:22.981Z,10.58
2023-02-22T13:22:14.084Z,10.54
2023-02-22T13:24:53.238Z,10.56
2023-02-22T13:27:26.288Z,10.61
2023-02-22T13:29:58.972Z,10.54
2023-02-22T13:33:01.107Z,10.52
2023-02-22T13:35:47.363Z,10.46
2023-02-22T13:38:47.765Z,10.38
2023-02-22T13:41:23.614Z,10.28
2023-02-22T13:44:08.682Z,10.31
2023-02-22T13:47:16.981Z,10.37
2023-02-22T13:50:02.320Z,10.34
2023-02-22T13:52:31.800Z,10.35
2023-02-22T13:55:10.814Z,10.38
2023-02-22T13:57:50.786Z,10.31
2023-02-22T14:00:26.299Z,10.31
2023-02-22T14:03:17.970Z,10.22
2023-02-22T14:05:50.744Z,10.20
2023-02-22T14:08:17.471Z,10.14
2023-02-22T14:10:46.286Z,10.22
2023-02-22T14:13:14.516Z,10.27
2023-02-22T14:16:02.376Z,10.34
2023-02-22T14:18:37.674Z,10.32
2023-02-22T14:21:15.775Z,10.22
2023-02-22T14:24:05.625Z,10.25
2023-02-22T14:26:37.093Z,10.21
2023-02-22T14:29:03.622Z,10.18
2023-02-22T14:31:57.188Z,10.28
2023-02-22T14:34:41.393Z,10.32
2023-02-22T14:37:40.174Z,10.31
2023-02-22T14:40:29.494Z,10.28
2023-02-22T14:43:09.999Z,10.31
2023-02-22T14:45:53.509Z,10.18
2023-02-22T14:48:45.380Z,10.11
2023-02-22T14:51:50.407Z,10.03
2023-02-22T14:54:39.675Z,10.04
2023-02-22T14:57:19.231Z,10.03
2023-02-22T14:59:58.881Z,10.03
2023-02-22T15:02:26.112Z,10.03
2023-02-22T15:04:54.746Z,9.97
2023-02-22T15:07:28.798Z,9.86
2023-02-22T15:10:26.640Z,9.83
2023-02-22T15:13:09.800Z,9.84
2023-02-22T15:15:49.552Z,9.76
2023-02-22T15:18:27.160Z,9.73
2023-02-22T15:20:58.121Z,9.73
2023-02-22T15:23:30.328Z,9.74
2023-02-22T15:25:58.035Z,9.74
2023-02-22T15:28:28.768Z,9.74
2023-02-22T15:31:31.253Z,9.69
2023-02-22T15:34:08.973Z,9.64
2023-02-22T15:36:35.664Z,9.60
2023-02-22T15:39:07.893Z,9.57
2023-02-22T15:41:35.261Z,9.55
2023-02-22T15:44:22.830Z,9.45
2023-02-22T15:46:50.794Z,9.42
2023-02-22T15:49:20.497Z,9.42
2023-02-22T15:52:08.387Z,9.40
2023-02-22T15:54:42.144Z,9.35
2023-02-22T15:57:09.379Z,9.39
2023-02-22T15:59:45.527Z,9.36
2023-02-22T16:02:31.437Z,9.24
2023-02-22T16:05:13.384Z,9.28
2023-02-22T16:07:47.523Z,9.25
2023-02-22T16:10:27.153Z,9.22
2023-02-22T16:13:31.628Z,9.19
2023-02-22T16:16:02.932Z,9.08
2023-02-22T16:18:38.493Z,9.00
2023-02-22T16:21:06.947Z,8.95
2023-02-22T16:23:50.687Z,8.83
2023-02-22T16:26:27.876Z,8.64
2023-02-22T16:28:54.524Z,8.71
2023-02-22T16:31:25.160Z,8.65
2023-02-22T16:33:53.976Z,8.61
2023-02-22T16:36:24.362Z,8.56
2023-02-22T16:38:51.750Z,8.54
2023-02-22T16:41:19.916Z,8.44
2023-02-22T16:43:51.198Z,8.37
2023-02-22T16:46:19.767Z,8.25
2023-02-22T16:48:46.762Z,8.12
2023-02-22T16:51:16.634Z,8.19
2023-02-22T16:53:44.580Z,8.09
2023-02-22T16:56:16.123Z,8.06
2023-02-22T16:58:44.164Z,8.05
2023-02-22T17:01:12.624Z,8.03
2023-02-22T17:03:39.639Z,8.10
2023-02-22T17:06:06.525Z,8.01
2023-02-22T17:08:33.107Z,8.07
2023-02-22T17:11:00.680Z,8.06
2023-02-22T17:13:29.194Z,7.96
2023-02-22T17:15:56.901Z,8.03
2023-02-22T17:18:28.302Z,7.99
2023-02-22T17:20:55.184Z,7.96
2023-02-22T17:23:23.107Z,7.99
2023-02-22T17:26:02.257Z,7.99
2023-02-22T17:28:30.449Z,7.86
2023-02-22T17:31:02.451Z,7.88
2023-02-22T17:33:32.832Z,7.82
2023-02-22T17:36:02.055Z,7.77
2023-02-22T17:38:30.239Z,7.78
2023-02-22T17:40:59.018Z,7.71
2023-02-22T17:43:27.804Z,7.65
2023-02-22T17:45:55.059Z,7.53
2023-02-22T17:48:24.023Z,7.54
2023-02-22T17:50:51.863Z,7.60
2023-02-22T17:53:21.737Z,7.60
2023-02-22T17:55:48.826Z,7.48
2023-02-22T17:58:15.700Z,7.51
2023-02-22T18:00:48.464Z,7.51
2023-02-22T18:03:21.501Z,7.43
2023-02-22T18:05:49.770Z,7.33
2023-02-22T18:08:16.396Z,7.23
2023-02-22T18:10:43.865Z,7.27
2023-02-22T18:13:16.601Z,7.13
2023-02-22T18:15:43.607Z,7.09
2023-02-22T18:18:10.304Z,7.19
2023-02-22T18:20:39.952Z,7.04
2023-02-22T18:23:08.136Z,7.07
2023-02-22T18:25:36.645Z,7.09
2023-02-22T18:28:06.063Z,7.04
2023-02-22T18:30:35.726Z,6.83
2023-02-22T18:33:03.619Z,6.79
2023-02-22T18:35:31.142Z,6.86
2023-02-22T18:37:57.829Z,6.68
2023-02-22T18:40:24.388Z,6.59
2023-02-22T18:42:50.957Z,6.52
2023-02-22T18:45:18.059Z,6.62
2023-02-22T18:47:45.544Z,6.64
2023-02-22T18:50:13.316Z,6.61
2023-02-22T18:52:46.310Z,6.45
2023-02-22T18:55:14.272Z,6.28
2023-02-22T18:57:41.333Z,6.23
2023-02-22T19:00:10.325Z,6.16
2023-02-22T19:02:37.105Z,6.21
2023-02-22T19:05:06.106Z,6.25
2023-02-22T19:07:32.803Z,6.16
2023-02-22T19:09:59.630Z,6.09
2023-02-22T19:12:27.006Z,6.10
2023-02-22T19:14:53.608Z,6.00
2023-02-22T19:17:21.490Z,5.94
2023-02-22T19:19:48.571Z,5.93
2023-02-22T19:22:15.348Z,5.83
2023-02-22T19:24:43.495Z,5.74
2023-02-22T19:27:11.198Z,5.67
2023-02-22T19:29:38.925Z,5.60
2023-02-22T19:32:07.156Z,5.74
2023-02-22T19:34:34.003Z,5.80
2023-02-22T19:37:00.974Z,5.74
2023-02-22T19:39:29.234Z,5.76
2023-02-22T19:41:57.008Z,5.80
2023-02-22T19:44:24.432Z,5.87
2023-02-22T19:46:51.633Z,5.82
2023-02-22T19:49:18.232Z,5.86
2023-02-22T19:51:44.885Z,6.02
2023-02-22T19:54:19.421Z,5.97
2023-02-22T19:56:50.755Z,6.07
2023-02-22T19:59:22.608Z,5.99
2023-02-22T20:01:52.530Z,6.03
2023-02-22T20:04:21.409Z,6.00
2023-02-22T20:06:59.369Z,6.02
2023-02-22T20:09:33.329Z,6.00
2023-02-22T20:11:59.996Z,5.96
2023-02-22T20:14:28.428Z,6.03
2023-02-22T20:16:56.697Z,6.03
2023-02-22T20:19:24.328Z,5.94
2023-02-22T20:21:52.314Z,5.82
2023-02-22T20:24:19.150Z,5.70
2023-02-22T20:26:46.888Z,5.62
2023-02-22T20:29:14.266Z,5.70
2023-02-22T20:31:42.173Z,5.79
2023-02-22T20:34:10.106Z,5.72
2023-02-22T20:36:41.422Z,5.67
2023-02-22T20:39:13.373Z,5.65
2023-02-22T20:41:46.110Z,5.63
2023-02-22T20:44:15.265Z,5.53
2023-02-22T20:46:42.867Z,5.52
2023-02-22T20:49:12.485Z,5.52
2023-02-22T20:51:40.415Z,5.56
2023-02-22T20:54:08.497Z,5.55
2023-02-22T20:56:35.246Z,5.55
2023-02-22T20:59:03.638Z,5.52
2023-02-22T21:01:31.521Z,5.46
2023-02-22T21:04:02.489Z,5.31
2023-02-22T21:06:30.850Z,5.31
2023-02-22T21:08:59.794Z,5.36
2023-02-22T21:11:30.370Z,5.32
2023-02-22T21:13:57.680Z,5.34
2023-02-22T21:16:26.962Z,5.38
2023-02-22T21:18:58.564Z,5.31
2023-02-22T21:21:26.616Z,5.28
2023-02-22T21:23:55.197Z,5.18
2023-02-22T21:26:24.525Z,5.11
2023-02-22T21:28:52.292Z,5.18
2023-02-22T21:31:21.596Z,5.21
2023-02-22T21:33:53.880Z,5.25
2023-02-22T21:36:25.029Z,5.22
2023-02-22T21:38:57.527Z,5.20
2023-02-22T21:41:27.693Z,5.17
2023-02-22T21:43:56.024Z,5.17
2023-02-22T21:46:24.117Z,5.12
2023-02-22T21:48:50.948Z,5.11
2023-02-22T21:51:31.460Z,5.08
2023-02-22T21:54:04.272Z,5.12
2023-02-22T21:56:35.642Z,5.11
2023-02-22T21:59:11.553Z,5.05
2023-02-22T22:01:47.521Z,5.02
2023-02-22T22:04:18.847Z,5.02
2023-02-22T22:06:53.561Z,5.01
2023-02-22T22:09:23.316Z,5.07
2023-02-22T22:11:58.328Z,5.05
2023-02-22T22:14:26.100Z,5.01
2023-02-22T22:16:58.073Z,4.97
2023-02-22T22:19:25.898Z,4.84
2023-02-22T22:21:53.304Z,4.79
2023-02-22T22:24:21.337Z,4.87
2023-02-22T22:26:51.042Z,4.91
2023-02-22T22:29:18.611Z,4.84
2023-02-22T22:31:45.870Z,4.84
2023-02-22T22:34:12.730Z,4.83
2023-02-22T22:36:39.373Z,4.77
2023-02-22T22:39:14.701Z,4.81
2023-02-22T22:41:42.547Z,4.79
2023-02-22T22:44:09.852Z,4.77
2023-02-22T22:46:41.190Z,4.77
2023-02-22T22:49:10.143Z,4.74
2023-02-22T22:51:37.598Z,4.73
2023-02-22T22:54:05.778Z,4.64
2023-02-22T22:56:35.182Z,4.62
2023-02-22T22:59:07.364Z,4.57
2023-02-22T23:01:39.242Z,4.59
2023-02-22T23:04:16.141Z,4.60
2023-02-22T23:06:45.895Z,4.59
2023-02-22T23:09:27.230Z,4.62
2023-02-22T23:11:56.195Z,4.57
2023-02-22T23:14:25.132Z,4.59
2023-02-22T23:16:56.434Z,4.59
2023-02-22T23:19:23.042Z,4.62
2023-02-22T23:21:50.380Z,4.60
2023-02-22T23:24:19.309Z,4.63
2023-02-22T23:26:49.080Z,4.60
2023-02-22T23:29:21.313Z,4.49
2023-02-22T23:31:49.363Z,4.39
2023-02-22T23:34:18.168Z,4.42
2023-02-22T23:36:44.817Z,4.40
2023-02-22T23:39:14.113Z,4.40
2023-02-22T23:41:42.404Z,4.40
2023-02-22T23:44:17.234Z,4.45
2023-02-22T23:46:47.908Z,4.32
2023-02-22T23:49:19.984Z,4.31
2023-02-22T23:51:47.579Z,4.35
2023-02-22T23:54:19.111Z,4.32
2023-02-22T23:56:53.579Z,4.29
2023-02-22T23:59:20.198Z,4.33
